createdAt,value
2023-05-15T00:00:36.108Z,87966.00
2023-05-15T00:01:36.065Z,87964.00
2023-05-15T00:02:36.077Z,87962.00
2023-05-15T00:03:36.122Z,87962.00
2023-05-15T00:04:36.024Z,87960.00
2023-05-15T00:05:35.930Z,87960.00
2023-05-15T00:06:35.901Z,87958.00
2023-05-15T00:07:35.883Z,87956.00
2023-05-15T00:08:35.864Z,87958.00
2023-05-15T00:09:35.831Z,87955.00
2023-05-15T00:10:36.008Z,87956.00
2023-05-15T00:11:35.766Z,87955.00
2023-05-15T00:12:35.738Z,87955.00
2023-05-15T00:13:36.592Z,87955.00
2023-05-15T00:14:35.681Z,87956.00
2023-05-15T00:15:35.638Z,87958.00
2023-05-15T00:16:35.680Z,87958.00
2023-05-15T00:17:35.633Z,87956.00
2023-05-15T00:18:35.718Z,87956.00
2023-05-15T00:19:36.516Z,87956.00
2023-05-15T00:20:35.693Z,87958.00
2023-05-15T00:21:35.713Z,87956.00
2023-05-15T00:22:35.771Z,87956.00
2023-05-15T00:23:35.760Z,87956.00
2023-05-15T00:24:35.811Z,87955.00
2023-05-15T00:25:35.828Z,87953.00
2023-05-15T00:26:35.826Z,87958.00
2023-05-15T00:27:35.789Z,87958.00
2023-05-15T00:28:35.833Z,87955.00
2023-05-15T00:29:35.694Z,87955.00
2023-05-15T00:30:35.671Z,87955.00
2023-05-15T00:31:35.652Z,87956.00
2023-05-15T00:32:35.630Z,87955.00
2023-05-15T00:33:35.569Z,87953.00
2023-05-15T00:34:35.532Z,87948.00
2023-05-15T00:35:35.487Z,87950.00
2023-05-15T00:36:35.455Z,87950.00
2023-05-15T00:37:35.414Z,87948.00
2023-05-15T00:38:35.400Z,87953.00
2023-05-15T00:39:35.993Z,87948.00
2023-05-15T00:40:35.323Z,87948.00
2023-05-15T00:41:35.273Z,87950.00
2023-05-15T00:42:35.255Z,87953.00
2023-05-15T00:43:35.277Z,87953.00
2023-05-15T00:44:35.293Z,87953.00
2023-05-15T00:45:35.318Z,87953.00
2023-05-15T00:46:35.341Z,87950.00
2023-05-15T00:47:35.330Z,87953.00
2023-05-15T00:48:35.287Z,87953.00
2023-05-15T00:49:35.267Z,87948.00
2023-05-15T00:50:35.264Z,87948.00
2023-05-15T00:51:35.230Z,87950.00
2023-05-15T00:52:35.238Z,87947.00
2023-05-15T00:53:35.285Z,87947.00
2023-05-15T00:54:35.332Z,87948.00
2023-05-15T00:55:35.316Z,87947.00
2023-05-15T00:56:35.334Z,87947.00
2023-05-15T00:57:35.378Z,87948.00
2023-05-15T00:58:35.409Z,87948.00
2023-05-15T00:59:35.412Z,87948.00
2023-05-15T01:00:35.485Z,87948.00
2023-05-15T01:01:35.477Z,87947.00
2023-05-15T01:02:35.446Z,87948.00
2023-05-15T01:03:35.456Z,87947.00
2023-05-15T01:04:35.421Z,87947.00
2023-05-15T01:05:35.386Z,87945.00
2023-05-15T01:06:35.420Z,87943.00
2023-05-15T01:07:35.435Z,87943.00
2023-05-15T01:08:35.469Z,87943.00
2023-05-15T01:09:35.490Z,87947.00
2023-05-15T01:10:35.540Z,87945.00
2023-05-15T01:11:35.568Z,87947.00
2023-05-15T01:12:35.604Z,87947.00
2023-05-15T01:13:35.660Z,87945.00
2023-05-15T01:14:35.648Z,87947.00
2023-05-15T01:15:35.673Z,87943.00
2023-05-15T01:16:35.683Z,87941.00
2023-05-15T01:17:35.721Z,87939.00
2023-05-15T01:18:35.753Z,87939.00
2023-05-15T01:19:35.765Z,87941.00
2023-05-15T01:20:35.624Z,87943.00
2023-05-15T01:21:35.588Z,87945.00
2023-05-15T01:22:35.598Z,87943.00
2023-05-15T01:23:35.550Z,87945.00
2023-05-15T01:24:35.559Z,87943.00
2023-05-15T01:25:35.571Z,87941.00
2023-05-15T01:26:35.628Z,87943.00
2023-05-15T01:27:35.592Z,87943.00
2023-05-15T01:28:35.602Z,87945.00
2023-05-15T01:29:35.637Z,87943.00
2023-05-15T01:30:35.661Z,87948.00
2023-05-15T01:31:35.719Z,87947.00
2023-05-15T01:32:35.702Z,87948.00
2023-05-15T01:33:35.692Z,87948.00
2023-05-15T01:34:35.651Z,87947.00
2023-05-15T01:35:35.615Z,87948.00
2023-05-15T01:36:35.603Z,87947.00
2023-05-15T01:37:35.572Z,87947.00
2023-05-15T01:38:35.576Z,87947.00
2023-05-15T01:39:35.546Z,87947.00
2023-05-15T01:40:35.550Z,87947.00
2023-05-15T01:41:35.580Z,87947.00
2023-05-15T01:42:35.586Z,87945.00
2023-05-15T01:43:35.593Z,87947.00
2023-05-15T01:44:35.589Z,87948.00
2023-05-15T01:45:35.653Z,87948.00
2023-05-15T01:46:35.734Z,87947.00
2023-05-15T01:47:35.671Z,87948.00
2023-05-15T01:48:35.652Z,87948.00
2023-05-15T01:49:35.660Z,87948.00
2023-05-15T01:50:35.698Z,87948.00
2023-05-15T01:51:35.671Z,87948.00
2023-05-15T01:52:35.676Z,87947.00
2023-05-15T01:53:35.697Z,87947.00
2023-05-15T01:54:35.736Z,87947.00
2023-05-15T01:55:35.743Z,87947.00
2023-05-15T01:56:35.772Z,87948.00
2023-05-15T01:57:35.745Z,87950.00
2023-05-15T01:58:35.714Z,87953.00
2023-05-15T01:59:35.714Z,87950.00
2023-05-15T02:00:35.710Z,87953.00
2023-05-15T02:01:35.706Z,87953.00
2023-05-15T02:02:35.741Z,87953.00
2023-05-15T02:03:35.861Z,87955.00
2023-05-15T02:04:35.717Z,87955.00
2023-05-15T02:05:35.726Z,87950.00
2023-05-15T02:06:35.793Z,87953.00
2023-05-15T02:07:35.770Z,87948.00
2023-05-15T02:08:35.782Z,87950.00
2023-05-15T02:09:35.792Z,87950.00
2023-05-15T02:10:35.808Z,87950.00
2023-05-15T02:11:35.839Z,87953.00
2023-05-15T02:12:35.880Z,87955.00
2023-05-15T02:13:35.864Z,87955.00
2023-05-15T02:14:35.891Z,87953.00
2023-05-15T02:15:35.952Z,87955.00
2023-05-15T02:16:35.884Z,87955.00
2023-05-15T02:17:35.865Z,87955.00
2023-05-15T02:18:35.886Z,87953.00
2023-05-15T02:19:35.905Z,87950.00
2023-05-15T02:20:35.891Z,87956.00
2023-05-15T02:21:35.984Z,87956.00
2023-05-15T02:22:35.996Z,87955.00
2023-05-15T02:23:36.011Z,87955.00
2023-05-15T02:24:36.058Z,87953.00
2023-05-15T02:25:36.075Z,87953.00
2023-05-15T02:26:36.103Z,87950.00
2023-05-15T02:27:36.103Z,87953.00
2023-05-15T02:28:36.110Z,87953.00
2023-05-15T02:29:36.124Z,87953.00
2023-05-15T02:30:36.127Z,87953.00
2023-05-15T02:31:36.179Z,87955.00
2023-05-15T02:32:36.162Z,87955.00
2023-05-15T02:33:36.219Z,87948.00
2023-05-15T02:34:36.141Z,87948.00
2023-05-15T02:35:36.162Z,87948.00
2023-05-15T02:36:36.203Z,87947.00
2023-05-15T02:37:36.221Z,87945.00
2023-05-15T02:38:36.242Z,87943.00
2023-05-15T02:39:36.326Z,87941.00
2023-05-15T02:40:36.285Z,87945.00
2023-05-15T02:41:36.280Z,87945.00
2023-05-15T02:42:36.231Z,87947.00
2023-05-15T02:43:36.243Z,87945.00
2023-05-15T02:44:36.199Z,87947.00
2023-05-15T02:45:36.209Z,87947.00
2023-05-15T02:46:36.182Z,87947.00
2023-05-15T02:47:36.225Z,87947.00
2023-05-15T02:48:36.221Z,87950.00
2023-05-15T02:49:36.244Z,87950.00
2023-05-15T02:50:36.247Z,87948.00
2023-05-15T02:51:36.225Z,87953.00
2023-05-15T02:52:36.233Z,87953.00
2023-05-15T02:53:36.249Z,87955.00
2023-05-15T02:54:36.274Z,87955.00
2023-05-15T02:55:36.245Z,87955.00
2023-05-15T02:56:36.276Z,87953.00
2023-05-15T02:57:36.239Z,87955.00
2023-05-15T02:58:36.204Z,87958.00
2023-05-15T02:59:36.199Z,87956.00
2023-05-15T03:00:36.235Z,87953.00
2023-05-15T03:01:36.268Z,87956.00
2023-05-15T03:02:36.341Z,87958.00
2023-05-15T03:03:36.369Z,87955.00
2023-05-15T03:04:36.367Z,87953.00
2023-05-15T03:05:36.325Z,87956.00
2023-05-15T03:06:36.357Z,87956.00
2023-05-15T03:07:36.358Z,87953.00
2023-05-15T03:08:36.374Z,87953.00
2023-05-15T03:09:36.388Z,87950.00
2023-05-15T03:10:36.382Z,87950.00
2023-05-15T03:11:36.418Z,87955.00
2023-05-15T03:12:36.460Z,87956.00
2023-05-15T03:13:36.473Z,87958.00
2023-05-15T03:14:36.493Z,87958.00
2023-05-15T03:15:36.530Z,87958.00
2023-05-15T03:16:36.636Z,87962.00
2023-05-15T03:17:36.610Z,87964.00
2023-05-15T03:18:36.618Z,87964.00
2023-05-15T03:19:36.562Z,87966.00
2023-05-15T03:20:36.549Z,87964.00
2023-05-15T03:21:36.541Z,87966.00
2023-05-15T03:22:36.536Z,87960.00
2023-05-15T03:23:37.835Z,87964.00
2023-05-15T03:24:36.502Z,87964.00
2023-05-15T03:25:36.550Z,87968.00
2023-05-15T03:26:36.581Z,87968.00
2023-05-15T03:27:36.696Z,87966.00
2023-05-15T03:28:36.676Z,87966.00
2023-05-15T03:29:36.732Z,87966.00
2023-05-15T03:30:36.763Z,87964.00
2023-05-15T03:31:36.917Z,87970.00
2023-05-15T03:32:36.847Z,87964.00
2023-05-15T03:33:36.709Z,87966.00
2023-05-15T03:34:36.611Z,87966.00
2023-05-15T03:35:36.722Z,87960.00
2023-05-15T03:36:36.756Z,87960.00
2023-05-15T03:37:36.609Z,87960.00
2023-05-15T03:38:36.581Z,87962.00
2023-05-15T03:39:36.610Z,87962.00
2023-05-15T03:40:36.633Z,87962.00
2023-05-15T03:41:36.805Z,87962.00
2023-05-15T03:42:37.543Z,87962.00
2023-05-15T03:43:36.783Z,87964.00
2023-05-15T03:44:36.764Z,87966.00
2023-05-15T03:45:36.816Z,87966.00
2023-05-15T03:46:37.184Z,87964.00
2023-05-15T03:47:36.843Z,87970.00
2023-05-15T03:48:36.817Z,87966.00
2023-05-15T03:49:36.832Z,87970.00
2023-05-15T03:50:36.897Z,87972.00
2023-05-15T03:51:37.036Z,87974.00
2023-05-15T03:52:37.464Z,87970.00
2023-05-15T03:53:37.098Z,87972.00
2023-05-15T03:54:37.078Z,87974.00
2023-05-15T03:55:37.146Z,87974.00
2023-05-15T03:56:37.114Z,87974.00
2023-05-15T03:57:37.162Z,87976.00
2023-05-15T03:58:37.119Z,87974.00
2023-05-15T03:59:38.044Z,87978.00
2023-05-15T04:00:37.164Z,87978.00
2023-05-15T04:01:47.318Z,87976.00
2023-05-15T04:02:38.253Z,87976.00
2023-05-15T04:03:38.104Z,87985.00
2023-05-15T04:04:38.156Z,87978.00
2023-05-15T04:05:38.095Z,87978.00
2023-05-15T04:06:37.574Z,87978.00
2023-05-15T04:07:37.074Z,87974.00
2023-05-15T04:08:37.540Z,87976.00
2023-05-15T04:09:36.964Z,87978.00
2023-05-15T04:10:36.942Z,87978.00
2023-05-15T04:11:36.921Z,87978.00
2023-05-15T04:12:36.882Z,87978.00
2023-05-15T04:13:37.546Z,87978.00
2023-05-15T04:14:37.530Z,87978.00
2023-05-15T04:15:36.819Z,87978.00
2023-05-15T04:16:37.671Z,87976.00
2023-05-15T04:17:37.574Z,87974.00
2023-05-15T04:18:36.807Z,87976.00
2023-05-15T04:19:36.747Z,87978.00
2023-05-15T04:20:36.664Z,87987.00
2023-05-15T04:21:37.578Z,87987.00
2023-05-15T04:22:36.601Z,87991.00
2023-05-15T04:23:36.585Z,87995.00
2023-05-15T04:24:36.544Z,87997.00
2023-05-15T04:25:36.500Z,87997.00
2023-05-15T04:26:36.497Z,87997.00
2023-05-15T04:27:36.474Z,88001.00
2023-05-15T04:28:36.428Z,88001.00
2023-05-15T04:29:36.415Z,88001.00
2023-05-15T04:30:36.376Z,87999.00
2023-05-15T04:31:36.399Z,88001.00
2023-05-15T04:32:36.370Z,87999.00
2023-05-15T04:33:36.288Z,87999.00
2023-05-15T04:34:36.274Z,87997.00
2023-05-15T04:35:36.234Z,87997.00
2023-05-15T04:36:36.191Z,87999.00
2023-05-15T04:37:36.165Z,87997.00
2023-05-15T04:38:36.107Z,88003.00
2023-05-15T04:39:36.095Z,88003.00
2023-05-15T04:40:36.071Z,88005.00
2023-05-15T04:41:36.111Z,88007.00
2023-05-15T04:42:36.768Z,88008.00
2023-05-15T04:43:36.161Z,88008.00
2023-05-15T04:44:36.169Z,88007.00
2023-05-15T04:45:36.177Z,88007.00
2023-05-15T04:46:36.223Z,88007.00
2023-05-15T04:47:36.180Z,88003.00
2023-05-15T04:48:36.156Z,88005.00
2023-05-15T04:49:36.187Z,88001.00
2023-05-15T04:50:36.221Z,88001.00
2023-05-15T04:51:36.259Z,87999.00
2023-05-15T04:52:36.288Z,88001.00
2023-05-15T04:53:36.298Z,87999.00
2023-05-15T04:54:36.287Z,87997.00
2023-05-15T04:55:36.288Z,87995.00
2023-05-15T04:56:36.304Z,87993.00
2023-05-15T04:57:36.272Z,87997.00
2023-05-15T04:58:36.252Z,87997.00
2023-05-15T04:59:36.265Z,87999.00
2023-05-15T05:00:36.279Z,87999.00
2023-05-15T05:01:36.317Z,88001.00
2023-05-15T05:02:36.341Z,87997.00
2023-05-15T05:03:36.370Z,87999.00
2023-05-15T05:04:36.377Z,87999.00
2023-05-15T05:05:36.321Z,87999.00
2023-05-15T05:06:36.292Z,87997.00
2023-05-15T05:07:36.257Z,87999.00
2023-05-15T05:08:36.173Z,87999.00
2023-05-15T05:09:36.125Z,88003.00
2023-05-15T05:10:36.062Z,88003.00
2023-05-15T05:11:36.030Z,88005.00
2023-05-15T05:12:35.982Z,88008.00
2023-05-15T05:13:35.922Z,88008.00
2023-05-15T05:14:35.879Z,88010.00
2023-05-15T05:15:35.918Z,88005.00
2023-05-15T05:16:35.835Z,88008.00
2023-05-15T05:17:35.790Z,88014.00
2023-05-15T05:18:35.706Z,88014.00
2023-05-15T05:19:35.622Z,88016.00
2023-05-15T05:20:35.591Z,88014.00
2023-05-15T05:21:35.563Z,88014.00
2023-05-15T05:22:35.505Z,88012.00
2023-05-15T05:23:35.469Z,88016.00
2023-05-15T05:24:35.416Z,88016.00
2023-05-15T05:25:35.370Z,88014.00
2023-05-15T05:26:35.336Z,88012.00
2023-05-15T05:27:35.261Z,88012.00
2023-05-15T05:28:35.245Z,88010.00
2023-05-15T05:29:35.198Z,88008.00
2023-05-15T05:30:42.052Z,88012.00
2023-05-15T05:31:35.615Z,88014.00
2023-05-15T05:32:35.085Z,88012.00
2023-05-15T05:33:35.585Z,88014.00
2023-05-15T05:34:34.968Z,88014.00
2023-05-15T05:35:34.916Z,88016.00
2023-05-15T05:36:34.996Z,88016.00
2023-05-15T05:37:34.866Z,88020.00
2023-05-15T05:38:35.110Z,88020.00
2023-05-15T05:39:34.764Z,88022.00
2023-05-15T05:40:34.781Z,88022.00
2023-05-15T05:41:34.720Z,88026.00
2023-05-15T05:42:34.667Z,88030.00
2023-05-15T05:43:34.647Z,88028.00
2023-05-15T05:44:34.617Z,88030.00
2023-05-15T05:45:34.568Z,88034.00
2023-05-15T05:46:34.703Z,88034.00
2023-05-15T05:47:34.550Z,88032.00
2023-05-15T05:48:34.505Z,88036.00
2023-05-15T05:49:34.480Z,88036.00
2023-05-15T05:50:35.069Z,88038.00
2023-05-15T05:51:34.519Z,88036.00
2023-05-15T05:52:34.378Z,88038.00
2023-05-15T05:53:35.790Z,88038.00
2023-05-15T05:54:34.512Z,88042.00
2023-05-15T05:55:34.531Z,88040.00
2023-05-15T05:56:34.676Z,88042.00
2023-05-15T05:57:34.527Z,88044.00
2023-05-15T05:58:34.582Z,88044.00
2023-05-15T05:59:35.053Z,88046.00
2023-05-15T06:00:34.568Z,88048.00
2023-05-15T06:01:34.490Z,88046.00
2023-05-15T06:02:34.591Z,88048.00
2023-05-15T06:03:34.763Z,88050.00
2023-05-15T06:04:34.735Z,88050.00
2023-05-15T06:05:34.548Z,88048.00
2023-05-15T06:06:34.784Z,88046.00
2023-05-15T06:07:34.552Z,88048.00
2023-05-15T06:08:34.562Z,88052.00
2023-05-15T06:09:34.685Z,88050.00
2023-05-15T06:10:34.590Z,88048.00
2023-05-15T06:11:34.664Z,88048.00
2023-05-15T06:12:34.694Z,88054.00
2023-05-15T06:13:35.620Z,88054.00
2023-05-15T06:14:34.671Z,88056.00
2023-05-15T06:15:34.626Z,88058.00
2023-05-15T06:16:34.616Z,88056.00
2023-05-15T06:17:34.675Z,88060.00
2023-05-15T06:18:34.649Z,88063.00
2023-05-15T06:19:34.564Z,88063.00
2023-05-15T06:20:35.088Z,88063.00
2023-05-15T06:21:34.530Z,88056.00
2023-05-15T06:22:34.495Z,88058.00
2023-05-15T06:23:35.088Z,88056.00
2023-05-15T06:24:34.406Z,88058.00
2023-05-15T06:25:34.409Z,88062.00
2023-05-15T06:26:34.480Z,88062.00
2023-05-15T06:27:34.435Z,88063.00
2023-05-15T06:28:35.133Z,88060.00
2023-05-15T06:29:34.404Z,88060.00
2023-05-15T06:30:34.410Z,88060.00
2023-05-15T06:31:34.420Z,88062.00
2023-05-15T06:32:34.614Z,88062.00
2023-05-15T06:33:34.249Z,88062.00
2023-05-15T06:34:34.223Z,88062.00
2023-05-15T06:35:34.186Z,88062.00
2023-05-15T06:36:34.155Z,88062.00
2023-05-15T06:37:34.249Z,88062.00
2023-05-15T06:38:34.717Z,88060.00
2023-05-15T06:39:34.223Z,88060.00
2023-05-15T06:40:34.203Z,88060.00
2023-05-15T06:41:34.199Z,88063.00
2023-05-15T06:42:35.155Z,88063.00
2023-05-15T06:43:35.000Z,88063.00
2023-05-15T06:44:34.227Z,88062.00
2023-05-15T06:45:34.238Z,88063.00
2023-05-15T06:46:34.272Z,88063.00
2023-05-15T06:47:34.280Z,88063.00
2023-05-15T06:48:34.295Z,88063.00
2023-05-15T06:49:34.253Z,88060.00
2023-05-15T06:50:34.260Z,88060.00
2023-05-15T06:51:34.226Z,88060.00
2023-05-15T06:52:34.147Z,88058.00
2023-05-15T06:53:34.119Z,88062.00
2023-05-15T06:54:34.058Z,88062.00
2023-05-15T06:55:34.104Z,88063.00
2023-05-15T06:56:34.013Z,88062.00
2023-05-15T06:57:33.992Z,88062.00
2023-05-15T06:58:33.891Z,88063.00
2023-05-15T06:59:33.880Z,88063.00
2023-05-15T07:00:33.787Z,88063.00
2023-05-15T07:01:33.773Z,88067.00
2023-05-15T07:02:33.738Z,88067.00
2023-05-15T07:03:34.602Z,88065.00
2023-05-15T07:04:33.748Z,88063.00
2023-05-15T07:05:33.641Z,88065.00
2023-05-15T07:06:33.592Z,88067.00
2023-05-15T07:07:33.554Z,88067.00
2023-05-15T07:08:33.529Z,88067.00
2023-05-15T07:09:33.456Z,88065.00
2023-05-15T07:10:34.669Z,88065.00
2023-05-15T07:11:34.362Z,88067.00
2023-05-15T07:12:33.560Z,88067.00
2023-05-15T07:13:33.291Z,88067.00
2023-05-15T07:14:33.431Z,88069.00
2023-05-15T07:15:33.167Z,88067.00
2023-05-15T07:16:33.224Z,88071.00
2023-05-15T07:17:33.115Z,88069.00
2023-05-15T07:18:33.207Z,88069.00
2023-05-15T07:19:33.848Z,88069.00
2023-05-15T07:20:35.024Z,88071.00
2023-05-15T07:21:32.841Z,88071.00
2023-05-15T07:22:36.275Z,88071.00
2023-05-15T07:23:33.822Z,88073.00
2023-05-15T07:24:32.809Z,88075.00
2023-05-15T07:25:32.674Z,88073.00
2023-05-15T07:26:38.436Z,88073.00
2023-05-15T07:27:33.572Z,88077.00
2023-05-15T07:28:32.528Z,88079.00
2023-05-15T07:29:35.210Z,88077.00
2023-05-15T07:30:32.597Z,88075.00
2023-05-15T07:31:32.501Z,88077.00
2023-05-15T07:32:32.304Z,88075.00
2023-05-15T07:33:32.279Z,88075.00
2023-05-15T07:34:32.169Z,88075.00
2023-05-15T07:35:32.109Z,88079.00
2023-05-15T07:36:33.197Z,88085.00
2023-05-15T07:37:33.679Z,88081.00
2023-05-15T07:38:31.937Z,88079.00
2023-05-15T07:39:31.940Z,88083.00
2023-05-15T07:40:31.809Z,88087.00
2023-05-15T07:41:31.797Z,88087.00
2023-05-15T07:42:31.815Z,88085.00
2023-05-15T07:43:32.907Z,88083.00
2023-05-15T07:44:31.954Z,88085.00
2023-05-15T07:45:32.527Z,88087.00
2023-05-15T07:46:31.619Z,88081.00
2023-05-15T07:47:31.421Z,88087.00
2023-05-15T07:48:31.414Z,88085.00
2023-05-15T07:49:31.349Z,88083.00
2023-05-15T07:50:31.248Z,88087.00
2023-05-15T07:51:31.252Z,88087.00
2023-05-15T07:52:31.084Z,88085.00
2023-05-15T07:53:31.080Z,88085.00
2023-05-15T07:54:31.998Z,88085.00
2023-05-15T07:55:30.884Z,88081.00
2023-05-15T07:56:30.955Z,88081.00
2023-05-15T07:57:30.744Z,88083.00
2023-05-15T07:58:30.697Z,88085.00
2023-05-15T07:59:30.666Z,88085.00
2023-05-15T08:00:30.623Z,88087.00
2023-05-15T08:01:31.370Z,88087.00
2023-05-15T08:02:30.530Z,88085.00
2023-05-15T08:03:30.362Z,88083.00
2023-05-15T08:04:31.207Z,88083.00
2023-05-15T08:05:31.168Z,88081.00
2023-05-15T08:06:31.186Z,88077.00
2023-05-15T08:07:30.233Z,88077.00
2023-05-15T08:08:31.126Z,88075.00
2023-05-15T08:09:30.120Z,88075.00
2023-05-15T08:10:30.670Z,88073.00
2023-05-15T08:11:30.109Z,88071.00
2023-05-15T08:12:30.114Z,88067.00
2023-05-15T08:13:30.721Z,88067.00
2023-05-15T08:14:30.908Z,88065.00
2023-05-15T08:15:32.724Z,88062.00
2023-05-15T08:16:29.763Z,88063.00
2023-05-15T08:17:29.936Z,88063.00
2023-05-15T08:18:29.704Z,88058.00
2023-05-15T08:19:29.576Z,88056.00
2023-05-15T08:20:29.431Z,88058.00
2023-05-15T08:21:29.370Z,88062.00
2023-05-15T08:22:29.268Z,88058.00
2023-05-15T08:23:29.256Z,88056.00
2023-05-15T08:24:31.361Z,88060.00
2023-05-15T08:25:29.094Z,88056.00
2023-05-15T08:26:29.685Z,88056.00
2023-05-15T08:27:29.999Z,88054.00
2023-05-15T08:28:29.040Z,88052.00
2023-05-15T08:29:29.727Z,88050.00
2023-05-15T08:30:29.605Z,88056.00
2023-05-15T08:31:29.778Z,88054.00
2023-05-15T08:32:28.687Z,88058.00
2023-05-15T08:33:29.163Z,88056.00
2023-05-15T08:34:29.266Z,88058.00
2023-05-15T08:35:28.636Z,88058.00
2023-05-15T08:36:29.162Z,88052.00
2023-05-15T08:37:28.810Z,88050.00
2023-05-15T08:38:28.765Z,88046.00
2023-05-15T08:39:28.489Z,88052.00
2023-05-15T08:41:39.431Z,88050.00
2023-05-15T08:42:29.606Z,88048.00
2023-05-15T08:43:28.232Z,88048.00
2023-05-15T08:44:28.072Z,88042.00
2023-05-15T08:45:28.024Z,88038.00
2023-05-15T08:46:27.963Z,88038.00
2023-05-15T08:47:27.838Z,88042.00
2023-05-15T08:48:27.744Z,88038.00
2023-05-15T08:49:27.598Z,88036.00
2023-05-15T08:50:28.140Z,88038.00
2023-05-15T08:51:27.457Z,88042.00
2023-05-15T08:52:28.212Z,88038.00
2023-05-15T08:53:27.253Z,88038.00
2023-05-15T08:54:27.277Z,88036.00
2023-05-15T08:55:27.259Z,88038.00
2023-05-15T08:56:27.008Z,88040.00
2023-05-15T08:57:26.928Z,88040.00
2023-05-15T08:58:26.804Z,88042.00
2023-05-15T08:59:26.810Z,88042.00
2023-05-15T09:00:26.621Z,88040.00
2023-05-15T09:01:26.673Z,88038.00
2023-05-15T09:02:26.572Z,88036.00
2023-05-15T09:03:26.451Z,88036.00
2023-05-15T09:04:26.248Z,88034.00
2023-05-15T09:05:26.352Z,88036.00
2023-05-15T09:06:26.229Z,88034.00
2023-05-15T09:07:25.992Z,88036.00
2023-05-15T09:08:25.901Z,88036.00
2023-05-15T09:09:25.921Z,88036.00
2023-05-15T09:10:25.790Z,88040.00
2023-05-15T09:11:25.678Z,88040.00
2023-05-15T09:12:25.619Z,88040.00
2023-05-15T09:13:27.334Z,88042.00
2023-05-15T09:14:25.451Z,88046.00
2023-05-15T09:15:25.705Z,88046.00
2023-05-15T09:16:25.301Z,88044.00
2023-05-15T09:17:25.228Z,88046.00
2023-05-15T09:18:25.216Z,88040.00
2023-05-15T09:19:25.684Z,88036.00
2023-05-15T09:20:24.851Z,88040.00
2023-05-15T09:21:24.778Z,88036.00
2023-05-15T09:22:24.678Z,88036.00
2023-05-15T09:23:24.698Z,88032.00
2023-05-15T09:24:24.552Z,88034.00
2023-05-15T09:25:24.714Z,88028.00
2023-05-15T09:26:24.337Z,88030.00
2023-05-15T09:27:24.263Z,88030.00
2023-05-15T09:28:24.193Z,88028.00
2023-05-15T09:29:24.125Z,88028.00
2023-05-15T09:30:23.982Z,88020.00
2023-05-15T09:31:24.097Z,88022.00
2023-05-15T09:32:23.914Z,88018.00
2023-05-15T09:33:23.663Z,88018.00
2023-05-15T09:34:23.693Z,88018.00
2023-05-15T09:35:24.300Z,88016.00
2023-05-15T09:36:23.413Z,88014.00
2023-05-15T09:37:23.377Z,88014.00
2023-05-15T09:38:23.403Z,88018.00
2023-05-15T09:39:23.573Z,88016.00
2023-05-15T09:40:24.115Z,88014.00
2023-05-15T09:41:23.157Z,88022.00
2023-05-15T09:42:23.034Z,88018.00
2023-05-15T09:43:24.686Z,88022.00
2023-05-15T09:44:22.892Z,88024.00
2023-05-15T09:45:23.826Z,88020.00
2023-05-15T09:46:22.758Z,88022.00
2023-05-15T09:47:22.730Z,88020.00
2023-05-15T09:48:22.879Z,88018.00
2023-05-15T09:49:22.569Z,88022.00
2023-05-15T09:50:22.676Z,88022.00
2023-05-15T09:51:22.463Z,88020.00
2023-05-15T09:52:22.434Z,88024.00
2023-05-15T09:53:22.469Z,88020.00
2023-05-15T09:54:22.534Z,88018.00
2023-05-15T09:55:22.290Z,88026.00
2023-05-15T09:56:22.253Z,88020.00
2023-05-15T09:57:22.165Z,88020.00
2023-05-15T09:58:22.114Z,88018.00
2023-05-15T09:59:22.250Z,88020.00
2023-05-15T10:00:22.036Z,88026.00
2023-05-15T10:01:22.008Z,88018.00
2023-05-15T10:02:22.272Z,88018.00
2023-05-15T10:03:21.892Z,88018.00
2023-05-15T10:04:21.789Z,88022.00
2023-05-15T10:05:35.246Z,88018.00
2023-05-15T10:06:23.623Z,88022.00
2023-05-15T10:07:21.469Z,88018.00
2023-05-15T10:08:21.816Z,88020.00
2023-05-15T10:09:21.460Z,88020.00
2023-05-15T10:10:21.257Z,88020.00
2023-05-15T10:11:21.180Z,88014.00
2023-05-15T10:12:21.107Z,88018.00
2023-05-15T10:13:22.145Z,88012.00
2023-05-15T10:14:21.070Z,88016.00
2023-05-15T10:15:21.057Z,88010.00
2023-05-15T10:16:20.987Z,88008.00
2023-05-15T10:17:20.918Z,88007.00
2023-05-15T10:18:20.883Z,88008.00
2023-05-15T10:19:23.733Z,88008.00
2023-05-15T10:20:20.690Z,88007.00
2023-05-15T10:21:20.583Z,88008.00
2023-05-15T10:22:20.504Z,88008.00
2023-05-15T10:23:20.703Z,88005.00
2023-05-15T10:24:20.302Z,88003.00
2023-05-15T10:25:20.254Z,88001.00
2023-05-15T10:26:20.105Z,88010.00
2023-05-15T10:27:20.033Z,88005.00
2023-05-15T10:28:20.003Z,88003.00
2023-05-15T10:29:19.872Z,88001.00
2023-05-15T10:30:19.874Z,88010.00
2023-05-15T10:31:19.804Z,88003.00
2023-05-15T10:32:19.665Z,88010.00
2023-05-15T10:33:19.606Z,88008.00
2023-05-15T10:34:19.523Z,88005.00
2023-05-15T10:35:19.469Z,88012.00
2023-05-15T10:36:19.437Z,88003.00
2023-05-15T10:37:20.181Z,88005.00
2023-05-15T10:38:19.407Z,88008.00
2023-05-15T10:39:19.371Z,87999.00
2023-05-15T10:40:19.389Z,88003.00
2023-05-15T10:41:19.348Z,87995.00
2023-05-15T10:42:19.319Z,87993.00
2023-05-15T10:43:21.312Z,87995.00
2023-05-15T10:44:19.309Z,87991.00
2023-05-15T10:45:19.264Z,87995.00
2023-05-15T10:46:19.249Z,87993.00
2023-05-15T10:47:19.344Z,87995.00
2023-05-15T10:48:19.196Z,87991.00
2023-05-15T10:49:19.083Z,87997.00
2023-05-15T10:50:19.668Z,87997.00
2023-05-15T10:51:21.781Z,87991.00
2023-05-15T10:52:18.981Z,87991.00
2023-05-15T10:53:18.651Z,87989.00
2023-05-15T10:54:19.601Z,87985.00
2023-05-15T10:55:19.301Z,87978.00
2023-05-15T10:56:18.592Z,87978.00
2023-05-15T10:57:18.344Z,87974.00
2023-05-15T10:58:18.377Z,87978.00
2023-05-15T10:59:18.232Z,87985.00
2023-05-15T11:00:18.166Z,87987.00
2023-05-15T11:01:18.133Z,87972.00
2023-05-15T11:02:18.105Z,87978.00
2023-05-15T11:03:18.045Z,87978.00
2023-05-15T11:04:17.961Z,87987.00
2023-05-15T11:05:17.848Z,87989.00
2023-05-15T11:06:17.788Z,87985.00
2023-05-15T11:07:17.712Z,87987.00
2023-05-15T11:08:17.626Z,87985.00
2023-05-15T11:09:17.527Z,87987.00
2023-05-15T11:10:17.478Z,87991.00
2023-05-15T11:11:17.400Z,87985.00
2023-05-15T11:12:17.312Z,87978.00
2023-05-15T11:13:17.235Z,87976.00
2023-05-15T11:14:17.164Z,87985.00
2023-05-15T11:15:17.691Z,87978.00
2023-05-15T11:16:17.020Z,87976.00
2023-05-15T11:17:17.172Z,87972.00
2023-05-15T11:18:17.197Z,87974.00
2023-05-15T11:19:17.705Z,87974.00
2023-05-15T11:20:16.799Z,87978.00
2023-05-15T11:21:16.830Z,87987.00
2023-05-15T11:22:16.922Z,87991.00
2023-05-15T11:23:16.882Z,87987.00
2023-05-15T11:24:16.663Z,87991.00
2023-05-15T11:25:16.634Z,87991.00
2023-05-15T11:26:16.613Z,87991.00
2023-05-15T11:27:16.594Z,87997.00
2023-05-15T11:28:16.438Z,88001.00
2023-05-15T11:29:17.178Z,87997.00
2023-05-15T11:30:16.329Z,88003.00
2023-05-15T11:31:16.331Z,88003.00
2023-05-15T11:32:16.299Z,88005.00
2023-05-15T11:33:16.386Z,88007.00
2023-05-15T11:34:16.136Z,88008.00
2023-05-15T11:35:16.105Z,88008.00
2023-05-15T11:36:16.095Z,88008.00
2023-05-15T11:37:16.657Z,88014.00
2023-05-15T11:38:15.971Z,88012.00
2023-05-15T11:39:16.690Z,88012.00
2023-05-15T11:40:15.873Z,88012.00
2023-05-15T11:41:15.838Z,88016.00
2023-05-15T11:42:15.782Z,88010.00
2023-05-15T11:43:15.752Z,88005.00
2023-05-15T11:44:15.707Z,88014.00
2023-05-15T11:45:15.685Z,88018.00